Lorraine L — WDB8580 — position and weather

sailwx.info

Track history (hours):
 
Tides and Currents Weather Stations Pressure Air Temp Water Temp Dewpoint Dewpoint Depression Visibility Wind Speed Wind Dir Waves Ship Positions

Lorraine L

Owner: Highland Towing LLC, Metairie, LA. More information available from US FCC via Universal Licensing System and Coast Guard Vessel Documentation Center.

Last reported at 2017-Jan-22 01:33 UTC. Time now 2017-Jan-22 01:51 UTC.
Position N 29°33' W 090°42'.

Length 19 m; draft 2.4 m.

Type: Towing. MMSI: 366961130.

Date/timePositionNaut miles runAvg speedWind from/ knotsBaromVisibWave heightAir tempDewpointWater temp
2017-Jan-22 01:33N 29°33' W 090°42'6 6.2
2017-Jan-22 00:33N 29°27' W 090°43'1 0.0
2017-Jan-20 18:33N 29°25' W 090°43'4 4.3
2017-Jan-20 17:33N 29°30' W 090°43'4 4.0
2017-Jan-20 16:33N 29°34' W 090°43'3 3.3
2017-Jan-20 15:33N 29°32' W 090°46'5 4.6
2017-Jan-20 14:33N 29°32' W 090°51'4 4.5
2017-Jan-20 13:33N 29°34' W 090°56'44 2.4
2017-Jan-19 19:18N 29°46' W 091°45'3 3.7
2017-Jan-19 18:22N 29°47' W 091°49'4 1.9
2017-Jan-19 16:16N 29°51' W 091°51'3 3.9
2017-Jan-19 15:34N 29°51' W 091°55'4 3.9
2017-Jan-19 14:34N 29°50' W 091°59'4 3.8
2017-Jan-19 13:34N 29°49' W 092°03'3 2.6
2017-Jan-19 12:33N 29°48' W 092°06'0 0.3
2017-Jan-19 11:33N 29°48' W 092°06'3 3.4
2017-Jan-19 10:33N 29°47' W 092°10'1 1.1
2017-Jan-19 09:31N 29°47' W 092°11'0 0.0
2017-Jan-19 08:31N 29°47' W 092°11'1 1.0
2017-Jan-19 07:32N 29°47' W 092°12'2 2.3
2017-Jan-19 06:33N 29°48' W 092°15'3 2.7
2017-Jan-19 05:33N 29°49' W 092°18'3 3.2
2017-Jan-19 04:34N 29°51' W 092°21'3 2.6
2017-Jan-19 03:33N 29°53' W 092°23'4 4.0
2017-Jan-19 02:33N 29°54' W 092°27'5 4.6
2017-Jan-19 01:32N 29°54' W 092°33'29 2.0
2017-Jan-18 10:33N 29°56' W 093°07'3 3.0
2017-Jan-18 09:33N 29°57' W 093°10'3 3.4
2017-Jan-18 08:33N 29°59' W 093°13'3 3.1
2017-Jan-18 07:33N 30°02' W 093°15'3 3.3
2017-Jan-18 06:33N 30°05' W 093°17'2 2.5
2017-Jan-18 05:33N 30°06' W 093°19'3 3.1
2017-Jan-18 04:33N 30°04' W 093°22'3 3.1
2017-Jan-18 03:32N 30°04' W 093°25'3 3.0
2017-Jan-18 02:33N 30°04' W 093°29'3 3.4
2017-Jan-18 01:33N 30°04' W 093°33'3 3.3
2017-Jan-18 00:33N 30°04' W 093°37'3 3.2
2017-Jan-17 23:32N 30°03' W 093°40'  
Track history (hours):
 
Tides and Currents Weather Stations Pressure Air Temp Water Temp Dewpoint Dewpoint Depression Visibility Wind Speed Wind Dir Waves Ship Positions

Lorraine L

Owner: Highland Towing LLC, Metairie, LA. More information available from US FCC via Universal Licensing System and Coast Guard Vessel Documentation Center.

Last reported at 2017-Jan-22 01:33 UTC. Time now 2017-Jan-22 01:51 UTC.
Position N 29°33' W 090°42'.

Length 19 m; draft 2.4 m.

Type: Towing. MMSI: 366961130.

Date/timePositionNaut miles runAvg speedWind from/ knotsBaromVisibWave heightAir tempDewpointWater temp
2017-Jan-22 01:33N 29°33' W 090°42'6 6.2
2017-Jan-22 00:33N 29°27' W 090°43'1 0.0
2017-Jan-20 18:33N 29°25' W 090°43'4 4.3
2017-Jan-20 17:33N 29°30' W 090°43'4 4.0
2017-Jan-20 16:33N 29°34' W 090°43'3 3.3
2017-Jan-20 15:33N 29°32' W 090°46'5 4.6
2017-Jan-20 14:33N 29°32' W 090°51'4 4.5
2017-Jan-20 13:33N 29°34' W 090°56'44 2.4
2017-Jan-19 19:18N 29°46' W 091°45'3 3.7
2017-Jan-19 18:22N 29°47' W 091°49'4 1.9
2017-Jan-19 16:16N 29°51' W 091°51'3 3.9
2017-Jan-19 15:34N 29°51' W 091°55'4 3.9
2017-Jan-19 14:34N 29°50' W 091°59'4 3.8
2017-Jan-19 13:34N 29°49' W 092°03'3 2.6
2017-Jan-19 12:33N 29°48' W 092°06'0 0.3
2017-Jan-19 11:33N 29°48' W 092°06'3 3.4
2017-Jan-19 10:33N 29°47' W 092°10'1 1.1
2017-Jan-19 09:31N 29°47' W 092°11'0 0.0
2017-Jan-19 08:31N 29°47' W 092°11'1 1.0
2017-Jan-19 07:32N 29°47' W 092°12'2 2.3
2017-Jan-19 06:33N 29°48' W 092°15'3 2.7
2017-Jan-19 05:33N 29°49' W 092°18'3 3.2
2017-Jan-19 04:34N 29°51' W 092°21'3 2.6
2017-Jan-19 03:33N 29°53' W 092°23'4 4.0
2017-Jan-19 02:33N 29°54' W 092°27'5 4.6
2017-Jan-19 01:32N 29°54' W 092°33'29 2.0
2017-Jan-18 10:33N 29°56' W 093°07'3 3.0
2017-Jan-18 09:33N 29°57' W 093°10'3 3.4
2017-Jan-18 08:33N 29°59' W 093°13'3 3.1
2017-Jan-18 07:33N 30°02' W 093°15'3 3.3
2017-Jan-18 06:33N 30°05' W 093°17'2 2.5
2017-Jan-18 05:33N 30°06' W 093°19'3 3.1
2017-Jan-18 04:33N 30°04' W 093°22'3 3.1
2017-Jan-18 03:32N 30°04' W 093°25'3 3.0
2017-Jan-18 02:33N 30°04' W 093°29'3 3.4
2017-Jan-18 01:33N 30°04' W 093°33'3 3.3
2017-Jan-18 00:33N 30°04' W 093°37'3 3.2
2017-Jan-17 23:32N 30°03' W 093°40'  

Dump ship's entire track history